M I D A S
Marine Information and Data Acquisition System
Tripno 2261 of the Zeeleeuw from 2012-02-08 07:52:53 to 2012-02-08 13:34:05
Back to CruiseResearch ActivitiesStationsMapUnderway DataData graphs

EquipmentUnitsComments
TimeDGPSUTC
LatitudeDGPSDM.mWGS84
LongitudeDGPSDM.mWGS84
SpeedMeteo Stationm/sRelative wind speed
DirectionMeteo StationdegRelative wind direction
TemperatureMeteo Stationdeg CelciusAir temperature
PressureMeteo StationPaAtmospheric pressure
HumidityMeteo Station%Relative humidity
Missing or incorrect values are displayed as -999
Metereological data collected by the RV Zeeleeuw from 2012-02-08 07:32:44 to 2012-02-08 13:44:23
Time Latitude Longitude Speed Direction Temperature Pressure Humidity
2012-02-08 07:33 51°13.637 2°56.019 4.6 282 -3 103910 35
2012-02-08 07:34 51°13.635 2°56.019 4.5 287 -3 103920 35
2012-02-08 07:35 51°13.636 2°56.018 2.8 282 -3 103920 36
2012-02-08 07:36 51°13.636 2°56.018 5.2 282 -3 103920 35
2012-02-08 07:37 51°13.637 2°56.018 3.4 286 -3 103910 35
2012-02-08 07:38 51°13.635 2°56.019 4.5 309 -2.9 103920 34
2012-02-08 07:39 51°13.636 2°56.019 4.6 286 -3 103910 36
2012-02-08 07:40 51°13.636 2°56.018 5.4 286 -2.9 103910 34
2012-02-08 07:41 51°13.636 2°56.019 3.7 287 -2.9 103910 34
2012-02-08 07:42 51°13.637 2°56.018 5.4 286 -2.9 103910 36
2012-02-08 07:43 51°13.636 2°56.02 4.6 283 -2.9 103920 34
2012-02-08 07:44 51°13.637 2°56.02 4.9 289 -2.9 103920 34
2012-02-08 07:45 51°13.636 2°56.019 4 304 -2.9 103920 35
2012-02-08 07:46 51°13.636 2°56.018 2.6 285 -2.9 103920 34
2012-02-08 07:47 51°13.636 2°56.019 5.9 280 -2.9 103930 36
2012-02-08 07:48 51°13.636 2°56.018 4.8 286 -2.9 103920 35
2012-02-08 07:49 51°13.636 2°56.018 4.2 281 -2.9 103920 35
2012-02-08 07:50 51°13.636 2°56.019 3.1 282 -2.9 103920 35
2012-02-08 07:51 51°13.635 2°56.019 3.5 284 -2.9 103930 35
2012-02-08 07:52 51°13.636 2°56.006 3.4 281 -2.9 103930 34
2012-02-08 07:53 51°13.655 2°55.92 0.8 284 -2.8 103930 34
2012-02-08 07:54 51°13.689 2°55.811 3.2 283 -2.9 103930 36
2012-02-08 07:55 51°13.753 2°55.71 5.6 286 -2.9 103950 35
2012-02-08 07:56 51°13.842 2°55.631 5.2 289 -2.8 103940 37
2012-02-08 07:57 51°13.932 2°55.626 5.7 78 -2.9 103950 36
2012-02-08 07:58 51°13.976 2°55.651 4.1 78 -2.9 103930 36
2012-02-08 07:59 51°14 2°55.565 4.1 11 -2.8 103930 37
2012-02-08 08:00 51°14.105 2°55.447 6.3 3 -2.8 103930 36
2012-02-08 08:01 51°14.231 2°55.322 6.7 2 -2.8 103920 35
2012-02-08 08:02 51°14.364 2°55.192 8.2 4 -2.8 103900 36
2012-02-08 08:03 51°14.505 2°55.033 9.2 10 -2.7 103900 36
2012-02-08 08:04 51°14.62 2°54.809 7.1 20 -2.6 103900 38
2012-02-08 08:05 51°14.609 2°54.507 0.3 76 -2.5 103930 37
2012-02-08 08:06 51°14.499 2°54.224 3.5 77 -2.5 103930 37
2012-02-08 08:07 51°14.385 2°53.933 3.8 72 -2.5 103930 37
2012-02-08 08:08 51°14.26 2°53.632 2.7 71 -2.5 103920 36
2012-02-08 08:09 51°14.131 2°53.336 4.3 77 -2.4 103920 35
2012-02-08 08:10 51°14.009 2°53.04 1.8 77 -2.4 103920 38
2012-02-08 08:11 51°13.894 2°52.73 3.1 75 -2.3 103920 37
2012-02-08 08:12 51°13.77 2°52.429 4.6 72 -2.3 103930 38
2012-02-08 08:13 51°13.663 2°52.112 1.6 74 -2.2 103930 37
2012-02-08 08:14 51°13.546 2°51.802 2.9 81 -2.2 103930 37
2012-02-08 08:15 51°13.417 2°51.504 2.1 67 -2.1 103930 36
2012-02-08 08:16 51°13.297 2°51.195 2.6 72 -2.1 103930 38
2012-02-08 08:17 51°13.16 2°50.884 2.6 75 -2.2 103930 36
2012-02-08 08:18 51°13.036 2°50.572 1.2 75 -2.3 103930 38
2012-02-08 08:19 51°12.909 2°50.26 3.1 71 -2.3 103920 37
2012-02-08 08:20 51°12.781 2°49.948 2.8 78 -2.2 103930 36
2012-02-08 08:21 51°12.654 2°49.634 4.4 77 -2.3 103930 35
2012-02-08 08:22 51°12.53 2°49.321 1.5 71 -2.3 103930 37
2012-02-08 08:23 51°12.421 2°49.005 0.8 45 -2.3 103930 37
2012-02-08 08:24 51°12.311 2°48.687 0.7 74 -2.3 103930 37
2012-02-08 08:25 51°12.199 2°48.364 3 71 -2.2 103930 38
2012-02-08 08:26 51°12.079 2°48.051 2 80 -2 103940 37
2012-02-08 08:27 51°11.964 2°47.735 3.6 74 -1.9 103930 37
2012-02-08 08:28 51°11.855 2°47.417 2.8 41 -2 103940 37
2012-02-08 08:29 51°11.776 2°47.083 2.7 74 -2 103940 36
2012-02-08 08:30 51°11.702 2°46.745 3.3 31 -2 103940 38
2012-02-08 08:31 51°11.666 2°46.382 5 38 -2 103940 36
2012-02-08 08:32 51°11.639 2°46.012 4.5 37 -2.2 103940 37
2012-02-08 08:33 51°11.617 2°45.638 4.1 33 -2.2 103940 36
2012-02-08 08:34 51°11.576 2°45.283 4.3 73 -2.3 103930 37
2012-02-08 08:35 51°11.545 2°44.926 4.1 39 -2.3 103930 36
2012-02-08 08:36 51°11.518 2°44.575 4.6 34 -2.2 103920 38
2012-02-08 08:37 51°11.493 2°44.22 6.2 34 -2.2 103930 36
2012-02-08 08:38 51°11.479 2°43.873 3.6 27 -2.2 103920 38
2012-02-08 08:39 51°11.469 2°43.529 6.6 41 -2.1 103930 38
2012-02-08 08:40 51°11.456 2°43.184 5.6 36 -2.2 103930 38
2012-02-08 08:41 51°11.439 2°42.846 2.9 79 -2 103920 39
2012-02-08 08:42 51°11.385 2°42.516 0.4 76 -2 103930 39
2012-02-08 08:43 51°11.298 2°42.201 1 42 -1.9 103930 39
2012-02-08 08:44 51°11.215 2°41.875 3.1 71 -1.7 103930 38
2012-02-08 08:45 51°11.095 2°41.578 5.5 78 -1.7 103910 36
2012-02-08 08:46 51°10.961 2°41.295 3.9 77 -1.9 103920 36
2012-02-08 08:47 51°10.832 2°40.994 2.4 71 -1.8 103920 38
2012-02-08 08:48 51°10.708 2°40.703 6.4 79 -1.9 103920 38
2012-02-08 08:49 51°10.583 2°40.392 3.1 72 -2 103920 38
2012-02-08 08:50 51°10.465 2°40.087 3.3 78 -1.9 103920 36
2012-02-08 08:51 51°10.38 2°39.756 4.3 79 -1.9 103920 37
2012-02-08 08:52 51°10.299 2°39.416 4.5 78 -2 103920 37
2012-02-08 08:53 51°10.215 2°39.082 3.5 74 -1.9 103920 37
2012-02-08 08:54 51°10.125 2°38.751 3.4 80 -1.7 103920 37
2012-02-08 08:55 51°10.037 2°38.406 4.5 74 -1.4 103930 38
2012-02-08 08:56 51°9.94 2°38.08 2.5 79 -1.6 103920 36
2012-02-08 08:57 51°9.829 2°37.755 2.1 73 -1.5 103930 37
2012-02-08 08:58 51°9.715 2°37.423 1.8 78 -1.3 103920 37
2012-02-08 08:59 51°9.614 2°37.096 2.8 74 -1.1 103920 36
2012-02-08 09:00 51°9.506 2°36.764 1.7 78 -1.1 103920 36
2012-02-08 09:01 51°9.399 2°36.428 3.1 78 -1.1 103910 35
2012-02-08 09:02 51°9.287 2°36.095 3.5 73 -1.3 103920 35
2012-02-08 09:03 51°9.181 2°35.758 5.5 78 -1.4 103920 36
2012-02-08 09:04 51°9.069 2°35.44 4.5 75 -1.5 103910 37
2012-02-08 09:05 51°8.957 2°35.109 5.1 80 -1.6 103920 37
2012-02-08 09:06 51°8.85 2°34.785 5 73 -1.8 103920 37
2012-02-08 09:07 51°8.742 2°34.453 4.4 73 -1.8 103920 36
2012-02-08 09:08 51°8.634 2°34.131 4.4 73 -1.9 103920 37
2012-02-08 09:09 51°8.547 2°33.798 3 75 -1.6 103920 37
2012-02-08 09:10 51°8.523 2°33.453 7 25 -1.4 103910 38
2012-02-08 09:11 51°8.657 2°33.228 12 2 -1.5 103880 38
2012-02-08 09:12 51°8.831 2°33.127 16.2 357 -1.6 103880 38
2012-02-08 09:13 51°8.973 2°33.253 18.7 284 -1.6 103870 38
2012-02-08 09:14 51°9.122 2°33.39 13.9 344 -1.6 103850 38
2012-02-08 09:15 51°9.268 2°33.555 12.9 286 -1.6 103850 38
2012-02-08 09:16 51°9.388 2°33.766 15.7 286 -1.7 103880 38
2012-02-08 09:17 51°9.516 2°33.96 11.8 284 -1.7 103830 36
2012-02-08 09:18 51°9.65 2°34.149 14.5 285 -1.7 103850 37
2012-02-08 09:19 51°9.785 2°34.343 13.8 286 -1.8 103850 38
2012-02-08 09:20 51°9.91 2°34.546 13.1 286 -1.6 103850 38
2012-02-08 09:21 51°10.038 2°34.746 16.3 286 -1.6 103830 38
2012-02-08 09:22 51°10.171 2°34.932 13.2 283 -1.5 103850 39
2012-02-08 09:23 51°10.302 2°35.121 14 284 -1.6 103840 38
2012-02-08 09:24 51°10.425 2°35.324 15.8 286 -1.6 103850 38
2012-02-08 09:25 51°10.544 2°35.529 15 288 -1.6 103860 38
2012-02-08 09:26 51°10.675 2°35.712 14 286 -1.6 103840 38
2012-02-08 09:27 51°10.814 2°35.866 8.6 282 -1.5 103850 39
2012-02-08 09:28 51°10.963 2°36.009 16.8 281 -1.6 103830 39
2012-02-08 09:29 51°11.104 2°36.168 14.7 285 -1.6 103860 38
2012-02-08 09:30 51°11.255 2°36.317 17.1 283 -1.6 103850 38
2012-02-08 09:31 51°11.396 2°36.47 16.7 286 -1.6 103840 38
2012-02-08 09:32 51°11.54 2°36.644 17.1 283 -1.7 103850 37
2012-02-08 09:33 51°11.686 2°36.8 15.8 284 -1.6 103850 37
2012-02-08 09:34 51°11.836 2°36.948 18.2 285 -1.6 103860 39
2012-02-08 09:35 51°11.98 2°37.104 11.6 282 -1.5 103840 39
2012-02-08 09:36 51°12.119 2°37.27 17.6 283 -1.5 103850 38
2012-02-08 09:37 51°12.263 2°37.417 13.1 287 -1.5 103850 38
2012-02-08 09:38 51°12.404 2°37.57 15.9 346 -1.5 103870 38
2012-02-08 09:39 51°12.544 2°37.731 12.5 286 -1.5 103850 38
2012-02-08 09:40 51°12.691 2°37.88 12.1 284 -1.6 103840 38
2012-02-08 09:41 51°12.836 2°38.037 13.8 287 -1.6 103850 37
2012-02-08 09:42 51°12.977 2°38.206 16.5 342 -1.6 103850 38
2012-02-08 09:43 51°13.124 2°38.361 15.2 283 -1.5 103840 38
2012-02-08 09:44 51°13.276 2°38.514 11.9 284 -1.6 103860 37
2012-02-08 09:45 51°13.424 2°38.688 22.8 287 -1.5 103860 38
2012-02-08 09:46 51°13.567 2°38.857 12.7 343 -1.5 103850 38
2012-02-08 09:47 51°13.696 2°39.046 15.5 340 -1.5 103870 38
2012-02-08 09:48 51°13.831 2°39.243 17.1 340 -1.5 103860 38
2012-02-08 09:49 51°13.973 2°39.416 16.7 340 -1.5 103860 38
2012-02-08 09:50 51°14.11 2°39.6 12.9 340 -1.5 103860 38
2012-02-08 09:51 51°14.237 2°39.795 11.8 341 -1.5 103870 39
2012-02-08 09:52 51°14.367 2°39.967 13.9 343 -1.6 103840 39
2012-02-08 09:53 51°14.517 2°40.145 13.5 338 -1.6 103850 38
2012-02-08 09:54 51°14.655 2°40.327 16.9 337 -1.6 103870 38
2012-02-08 09:55 51°14.785 2°40.52 15.9 337 -1.6 103860 38
2012-02-08 09:56 51°14.915 2°40.692 22.2 342 -1.6 103870 38
2012-02-08 09:57 51°15.055 2°40.864 11.5 338 -1.7 103860 38
2012-02-08 09:58 51°15.187 2°41.046 13.2 340 -1.6 103860 38
2012-02-08 09:59 51°15.326 2°41.226 13.4 350 -1.6 103880 37
2012-02-08 10:00 51°15.497 2°41.251 14.7 355 -1.6 103850 38
2012-02-08 10:01 51°15.676 2°41.21 10.1 354 -1.6 103870 37
2012-02-08 10:02 51°15.852 2°41.157 12.8 5 -1.6 103840 38
2012-02-08 10:03 51°16.021 2°41.042 9.9 11 -1.6 103880 38
2012-02-08 10:04 51°16.104 2°40.759 4.7 34 -1.6 103920 37
2012-02-08 10:05 51°16.041 2°40.441 2.8 52 -1.5 103940 39
2012-02-08 10:06 51°15.902 2°40.156 5 52 -1.6 103930 37
2012-02-08 10:07 51°15.764 2°39.876 5.8 50 -1.6 103930 38
2012-02-08 10:08 51°15.623 2°39.594 3.7 48 -1.6 103930 38
2012-02-08 10:09 51°15.485 2°39.307 5.2 48 -1.5 103940 39
2012-02-08 10:10 51°15.345 2°39.015 5.2 55 -1.6 103930 36
2012-02-08 10:11 51°15.209 2°38.727 4.8 51 -1.6 103930 37
2012-02-08 10:12 51°15.07 2°38.443 3.9 51 -1.6 103930 38
2012-02-08 10:13 51°14.934 2°38.157 4.4 54 -1.6 103920 36
2012-02-08 10:14 51°14.798 2°37.875 3.5 50 -1.5 103930 38
2012-02-08 10:15 51°14.673 2°37.592 3.5 53 -1.6 103930 38
2012-02-08 10:16 51°14.558 2°37.296 2.9 55 -1.2 103930 38
2012-02-08 10:17 51°14.457 2°36.998 3.5 50 -1.2 103920 37
2012-02-08 10:18 51°14.357 2°36.705 1.2 49 -1.2 103920 37
2012-02-08 10:19 51°14.257 2°36.417 4.3 50 -1.1 103920 39
2012-02-08 10:20 51°14.156 2°36.125 3.7 53 -1.1 103920 37
2012-02-08 10:21 51°14.066 2°35.828 3.5 57 -0.7 103920 36
2012-02-08 10:22 51°13.965 2°35.531 4.5 50 -0.5 103930 36
2012-02-08 10:23 51°13.867 2°35.248 3.6 49 -0.4 103920 36
2012-02-08 10:24 51°13.771 2°34.958 2.2 50 -0.5 103920 38
2012-02-08 10:25 51°13.669 2°34.671 1.8 51 -0.5 103920 37
2012-02-08 10:26 51°13.557 2°34.392 4.5 55 -0.7 103920 37
2012-02-08 10:27 51°13.447 2°34.107 2.8 51 -0.6 103910 36
2012-02-08 10:28 51°13.338 2°33.824 3.8 49 -0.5 103910 37
2012-02-08 10:29 51°13.224 2°33.533 4.4 48 -0.2 103920 37
2012-02-08 10:30 51°13.111 2°33.256 3.7 55 -0.1 103910 36
2012-02-08 10:31 51°12.998 2°32.98 2.5 55 -0.3 103910 37
2012-02-08 10:32 51°12.877 2°32.705 4.6 55 -0.4 103910 35
2012-02-08 10:33 51°12.75 2°32.435 4.9 50 -0.5 103910 36
2012-02-08 10:34 51°12.632 2°32.152 2.1 56 -0.8 103920 38
2012-02-08 10:35 51°12.522 2°31.875 4.5 51 -0.7 103910 37
2012-02-08 10:36 51°12.402 2°31.594 3.5 48 -0.7 103910 37
2012-02-08 10:37 51°12.281 2°31.331 2.9 49 -0.6 103910 34
2012-02-08 10:38 51°12.159 2°31.059 4 50 -0.5 103920 37
2012-02-08 10:39 51°12.045 2°30.781 4.7 49 -0.6 103910 37
2012-02-08 10:40 51°11.925 2°30.511 3.8 56 -0.4 103910 36
2012-02-08 10:41 51°11.807 2°30.243 4.2 52 -0.4 103910 35
2012-02-08 10:42 51°11.691 2°29.979 6 52 -0.7 103900 35
2012-02-08 10:43 51°11.579 2°29.715 3.2 51 -0.9 103900 37
2012-02-08 10:44 51°11.515 2°29.416 4.2 42 -1 103900 36
2012-02-08 10:45 51°11.472 2°29.108 4.5 32 -0.9 103910 37
2012-02-08 10:46 51°11.436 2°28.815 4.2 29 -0.9 103910 39
2012-02-08 10:47 51°11.405 2°28.518 5.9 43 -1 103900 39
2012-02-08 10:48 51°11.384 2°28.232 6.9 34 -1.1 103900 37
2012-02-08 10:49 51°11.412 2°27.956 6.9 36 -1.2 103900 38
2012-02-08 10:50 51°11.446 2°27.669 7.2 30 -1.2 103890 39
2012-02-08 10:51 51°11.52 2°27.435 10.5 6 -1.2 103870 37
2012-02-08 10:52 51°11.687 2°27.317 10.7 7 -1.2 103840 38
2012-02-08 10:53 51°11.845 2°27.162 10.3 12 -1.2 103860 36
2012-02-08 10:54 51°12.002 2°27.011 16.2 13 -1.2 103840 37
2012-02-08 10:55 51°12.169 2°26.895 13.7 358 -1.1 103830 37
2012-02-08 10:56 51°12.362 2°26.919 7.2 349 -1.2 103830 37
2012-02-08 10:57 51°12.552 2°27.033 7.3 346 -1.2 103830 37
2012-02-08 10:58 51°12.731 2°27.186 18.9 342 -1.2 103820 37
2012-02-08 10:59 51°12.899 2°27.377 15.9 285 -1.3 103820 36
2012-02-08 11:00 51°13.052 2°27.569 12.6 283 -1.2 103830 38
2012-02-08 11:01 51°13.19 2°27.762 19 341 -1.1 103810 36
2012-02-08 11:02 51°13.329 2°27.924 13 345 -1.1 103820 37
2012-02-08 11:03 51°13.475 2°28.092 13.1 287 -1.1 103830 38
2012-02-08 11:04 51°13.613 2°28.272 21.7 281 -1.1 103830 37
2012-02-08 11:05 51°13.755 2°28.458 13.1 284 -1.2 103840 37
2012-02-08 11:06 51°13.901 2°28.633 17.7 341 -1.1 103850 38
2012-02-08 11:07 51°14.047 2°28.798 18.4 338 -1.1 103820 38
2012-02-08 11:08 51°14.189 2°28.971 14.4 340 -1.1 103840 38
2012-02-08 11:09 51°14.334 2°29.153 9.2 285 -1.1 103840 36
2012-02-08 11:10 51°14.473 2°29.334 15.1 339 -1.2 103830 37
2012-02-08 11:11 51°14.621 2°29.507 17.9 282 -1.2 103840 37
2012-02-08 11:12 51°14.773 2°29.678 16.8 283 -1.1 103840 38
2012-02-08 11:13 51°14.919 2°29.859 8.7 340 -1.1 103820 38
2012-02-08 11:14 51°15.064 2°30.05 13.1 336 -1.1 103830 37
2012-02-08 11:15 51°15.208 2°30.214 15.4 343 -1 103830 37
2012-02-08 11:16 51°15.362 2°30.387 13.7 284 -1.1 103840 37
2012-02-08 11:17 51°15.502 2°30.594 13 286 -1.1 103840 37
2012-02-08 11:18 51°15.641 2°30.809 15.7 286 -1.1 103840 38
2012-02-08 11:19 51°15.785 2°31.008 11.1 282 -1.2 103840 36
2012-02-08 11:20 51°15.926 2°31.19 8.3 345 -1.2 103830 36
2012-02-08 11:21 51°16.072 2°31.39 21.3 285 -1.2 103840 36
2012-02-08 11:22 51°16.21 2°31.602 14.8 341 -1.2 103830 37
2012-02-08 11:23 51°16.345 2°31.8 12.6 340 -1.2 103850 36
2012-02-08 11:24 51°16.454 2°32.044 17.2 332 -1.1 103840 37
2012-02-08 11:25 51°16.538 2°32.319 18.6 331 -1.1 103850 36
2012-02-08 11:26 51°16.608 2°32.613 12.9 307 -1.2 103840 36
2012-02-08 11:27 51°16.552 2°32.898 7.6 284 -1.1 103830 37
2012-02-08 11:28 51°16.437 2°33.142 8.2 308 -1.1 103820 37
2012-02-08 11:29 51°16.317 2°33.376 11.5 311 -1 103830 37
2012-02-08 11:30 51°16.185 2°33.62 14.4 282 -1 103850 37
2012-02-08 11:31 51°16.052 2°33.861 10.1 303 -1.1 103820 37
2012-02-08 11:32 51°15.917 2°34.098 6.8 309 -0.9 103820 38
2012-02-08 11:33 51°15.785 2°34.334 6.9 308 -1 103820 36
2012-02-08 11:34 51°15.659 2°34.56 14.4 309 -1 103840 38
2012-02-08 11:35 51°15.577 2°34.833 14.7 309 -1 103830 37
2012-02-08 11:36 51°15.612 2°35.124 15 284 -0.9 103840 38
2012-02-08 11:37 51°15.742 2°35.305 14.6 344 -1 103820 37
2012-02-08 11:38 51°15.889 2°35.456 8.5 338 -1.2 103840 37
2012-02-08 11:39 51°16.038 2°35.63 17 339 -1.2 103830 37
2012-02-08 11:40 51°16.181 2°35.801 19.8 339 -1.1 103830 38
2012-02-08 11:41 51°16.331 2°35.988 14.5 341 -1.2 103830 36
2012-02-08 11:42 51°16.471 2°36.186 17.8 341 -1.1 103810 38
2012-02-08 11:43 51°16.608 2°36.368 12.2 339 -1.1 103820 37
2012-02-08 11:44 51°16.748 2°36.552 11.5 344 -1.3 103840 39
2012-02-08 11:45 51°16.889 2°36.743 10.9 339 -1.4 103810 39
2012-02-08 11:46 51°17.026 2°36.939 21 281 -1.5 103800 39
2012-02-08 11:47 51°17.163 2°37.115 7.1 287 -1.5 103840 39
2012-02-08 11:48 51°17.3 2°37.3 14.8 285 -1.4 103830 38
2012-02-08 11:49 51°17.436 2°37.486 15.2 342 -1.4 103840 36
2012-02-08 11:50 51°17.583 2°37.665 16.9 287 -1.3 103820 38
2012-02-08 11:51 51°17.724 2°37.869 17.6 284 -1.3 103800 38
2012-02-08 11:52 51°17.862 2°38.048 12.4 280 -1.3 103810 38
2012-02-08 11:53 51°18.009 2°38.224 18 287 -1.2 103820 38
2012-02-08 11:54 51°18.161 2°38.409 17.5 285 -1.2 103810 38
2012-02-08 11:55 51°18.313 2°38.566 14.4 353 -1.2 103820 37
2012-02-08 11:56 51°18.474 2°38.517 9.1 5 -1.2 103810 37
2012-02-08 11:57 51°18.556 2°38.301 6.3 31 -1.2 103850 36
2012-02-08 11:58 51°18.545 2°38.043 3.4 78 -1.2 103870 38
2012-02-08 11:59 51°18.514 2°37.792 4.2 36 -1.2 103870 36
2012-02-08 12:00 51°18.481 2°37.533 4 35 -1.2 103870 36
2012-02-08 12:01 51°18.453 2°37.284 5.7 43 -1.1 103860 37
2012-02-08 12:02 51°18.421 2°37.03 3.4 32 -1.1 103860 36
2012-02-08 12:03 51°18.389 2°36.782 4 74 -1 103860 37
2012-02-08 12:04 51°18.36 2°36.534 5.6 73 -1 103870 38
2012-02-08 12:05 51°18.33 2°36.283 3.6 50 -1.1 103860 35
2012-02-08 12:06 51°18.299 2°36.034 3.9 72 -1.1 103860 36
2012-02-08 12:07 51°18.27 2°35.782 4.6 73 -1 103860 37
2012-02-08 12:08 51°18.242 2°35.537 3.1 77 -0.8 103860 38
2012-02-08 12:09 51°18.216 2°35.292 3.1 78 -0.6 103860 38
2012-02-08 12:10 51°18.232 2°35.049 6.8 30 -0.6 103860 35
2012-02-08 12:11 51°18.355 2°34.872 11.2 8 -0.8 103840 37
2012-02-08 12:12 51°18.53 2°34.824 12.8 1 -0.8 103810 38
2012-02-08 12:13 51°18.706 2°34.815 7.1 359 -0.7 103810 38
2012-02-08 12:14 51°18.883 2°34.804 12 357 -0.9 103800 37
2012-02-08 12:15 51°19.061 2°34.802 6.3 356 -0.9 103770 38
2012-02-08 12:16 51°19.245 2°34.821 15.6 352 -0.9 103800 38
2012-02-08 12:17 51°19.422 2°34.836 11.6 358 -1 103790 37
2012-02-08 12:18 51°19.598 2°34.842 9.8 357 -1 103780 36
2012-02-08 12:19 51°19.772 2°34.869 14.7 355 -1 103800 38
2012-02-08 12:20 51°19.941 2°34.889 12.4 -999 -0.9 103770 38
2012-02-08 12:21 51°20.118 2°34.898 13.8 356 -0.9 103790 36
2012-02-08 12:22 51°20.293 2°34.913 12.4 360 -0.9 103780 38
2012-02-08 12:23 51°20.47 2°34.923 9.8 350 -0.8 103790 38
2012-02-08 12:24 51°20.637 2°34.953 13.2 287 -0.8 103770 38
2012-02-08 12:25 51°20.754 2°35.173 6.8 286 -0.8 103790 38
2012-02-08 12:26 51°20.687 2°35.427 13.5 282 -0.7 103770 38
2012-02-08 12:27 51°20.574 2°35.66 13.8 289 -0.7 103770 38
2012-02-08 12:28 51°20.458 2°35.896 6.8 307 -0.7 103790 38
2012-02-08 12:29 51°20.338 2°36.132 10.2 283 -0.7 103790 37
2012-02-08 12:30 51°20.223 2°36.373 6.8 284 -0.7 103780 38
2012-02-08 12:31 51°20.117 2°36.618 8.1 284 -0.6 103790 38
2012-02-08 12:32 51°20.003 2°36.868 12.1 288 -0.6 103780 38
2012-02-08 12:33 51°19.894 2°37.113 6.1 282 -0.7 103800 37
2012-02-08 12:34 51°19.783 2°37.358 13.9 307 -0.7 103780 37
2012-02-08 12:35 51°19.678 2°37.613 6.8 283 -0.7 103770 37
2012-02-08 12:36 51°19.581 2°37.874 7.3 284 -0.8 103790 37
2012-02-08 12:37 51°19.481 2°38.132 6.8 284 -0.8 103790 36
2012-02-08 12:38 51°19.38 2°38.387 7 287 -0.8 103770 38
2012-02-08 12:39 51°19.279 2°38.644 13.3 282 -0.8 103780 38
2012-02-08 12:40 51°19.176 2°38.895 12.6 281 -0.9 103780 37
2012-02-08 12:41 51°19.077 2°39.149 12.8 310 -0.9 103770 38
2012-02-08 12:42 51°18.983 2°39.41 7 285 -0.8 103780 38
2012-02-08 12:43 51°18.886 2°39.672 7 286 -0.8 103780 38
2012-02-08 12:44 51°18.782 2°39.934 15.7 306 -0.9 103770 37
2012-02-08 12:45 51°18.681 2°40.203 7.8 286 -1 103780 36
2012-02-08 12:46 51°18.568 2°40.49 8.6 281 -0.9 103790 38
2012-02-08 12:47 51°18.454 2°40.781 6.5 286 -0.9 103780 37
2012-02-08 12:48 51°18.334 2°41.081 8.5 282 -1 103770 38
2012-02-08 12:49 51°18.218 2°41.37 12.9 281 -1 103750 37
2012-02-08 12:50 51°18.102 2°41.661 16.6 288 -0.9 103760 38
2012-02-08 12:51 51°17.986 2°41.945 14 287 -0.9 103760 37
2012-02-08 12:52 51°17.871 2°42.224 14.3 285 -1 103770 37
2012-02-08 12:53 51°17.763 2°42.509 15 283 -1 103780 36
2012-02-08 12:54 51°17.655 2°42.796 14.4 287 -1 103780 37
2012-02-08 12:55 51°17.543 2°43.08 14 286 -1 103770 37
2012-02-08 12:56 51°17.424 2°43.364 16 284 -1.1 103760 37
2012-02-08 12:57 51°17.306 2°43.652 5.9 286 -1 103790 37
2012-02-08 12:58 51°17.184 2°43.931 3.5 284 -1 103770 36
2012-02-08 12:59 51°17.057 2°44.196 13.7 285 -1 103770 37
2012-02-08 13:00 51°16.928 2°44.448 13.8 284 -1 103760 36
2012-02-08 13:01 51°16.798 2°44.713 13.4 285 -1.1 103760 36
2012-02-08 13:02 51°16.674 2°44.978 7.5 283 -1 103790 38
2012-02-08 13:03 51°16.549 2°45.24 6.4 282 -1 103770 37
2012-02-08 13:04 51°16.426 2°45.502 8.1 284 -1.1 103780 37
2012-02-08 13:05 51°16.318 2°45.787 6.8 284 -1.1 103770 37
2012-02-08 13:06 51°16.214 2°46.075 7.2 283 -1.1 103780 37
2012-02-08 13:07 51°16.104 2°46.359 19.1 285 -1.2 103780 37
2012-02-08 13:08 51°16.019 2°46.675 7.3 282 -1.2 103760 36
2012-02-08 13:09 51°15.939 2°47.002 12.3 287 -1.2 103770 36
2012-02-08 13:10 51°15.851 2°47.327 14.2 281 -1.2 103770 37
2012-02-08 13:11 51°15.773 2°47.656 17.1 287 -1.3 103770 36
2012-02-08 13:12 51°15.702 2°47.991 13.6 288 -1.3 103760 37
2012-02-08 13:13 51°15.653 2°48.329 14.4 284 -1.2 103770 37
2012-02-08 13:14 51°15.612 2°48.661 13.1 281 -1.2 103770 37
2012-02-08 13:15 51°15.571 2°49.005 13.8 285 -1.2 103770 37
2012-02-08 13:16 51°15.526 2°49.346 13.2 283 -1.2 103770 37
2012-02-08 13:17 51°15.485 2°49.69 16.6 283 -1.2 103750 36
2012-02-08 13:18 51°15.467 2°50.041 13 285 -1.2 103770 37
2012-02-08 13:19 51°15.45 2°50.389 7.5 284 -1.2 103750 37
2012-02-08 13:20 51°15.426 2°50.736 8 282 -1.2 103760 37
2012-02-08 13:21 51°15.398 2°51.083 18.6 283 -1.2 103750 37
2012-02-08 13:22 51°15.372 2°51.431 16.2 285 -1.3 103760 37
2012-02-08 13:23 51°15.355 2°51.782 11.6 284 -1.3 103760 37
2012-02-08 13:24 51°15.333 2°52.132 8.5 284 -1.3 103760 36
2012-02-08 13:25 51°15.315 2°52.481 7 281 -1.2 103750 36
2012-02-08 13:26 51°15.283 2°52.823 12.8 288 -1.2 103740 37
2012-02-08 13:27 51°15.246 2°53.164 7.7 285 -1.3 103770 37
2012-02-08 13:28 51°15.198 2°53.504 16.2 285 -1.3 103750 37
2012-02-08 13:29 51°15.152 2°53.84 7.3 286 -1.3 103730 38
2012-02-08 13:30 51°15.102 2°54.172 17.6 285 -1.4 103730 36
2012-02-08 13:31 51°14.995 2°54.461 10.1 284 -1.4 103750 37
2012-02-08 13:32 51°14.84 2°54.71 10.5 289 -1.4 103760 36
2012-02-08 13:33 51°14.683 2°54.924 5.8 284 -1.4 103760 36
2012-02-08 13:34 51°14.505 2°55.07 12.6 282 -1.4 103770 36
2012-02-08 13:35 51°14.339 2°55.218 8.3 283 -1.4 103770 38
2012-02-08 13:36 51°14.202 2°55.347 8.3 288 -1.4 103780 38
2012-02-08 13:37 51°14.067 2°55.448 8.6 287 -1.4 103800 37
2012-02-08 13:38 51°13.926 2°55.55 7.5 284 -1.4 103800 37
2012-02-08 13:39 51°13.794 2°55.65 4.9 287 -1.5 103800 37
2012-02-08 13:40 51°13.722 2°55.76 6.4 288 -1.4 103810 37
2012-02-08 13:41 51°13.674 2°55.857 7.2 281 -1.5 103790 35
2012-02-08 13:42 51°13.643 2°55.95 6.4 286 -1.5 103800 37
2012-02-08 13:43 51°13.637 2°56.012 7.3 282 -1.4 103800 37